Time;durP1;ratioP1;P1;durP2;ratioP2;P2;SDS_P1;SDS_P2;PMS_P1;PMS_P2;Temp;Humidity;BMP_temperature;BMP_pressure;BME280_temperature;BME280_humidity;BME280_pressure;Samples;Min_cycle;Max_cycle;Signal;HPM_P1;HPM_P2
2021/07/30 00:00:46;;;;;;;15.70;6.72;;;;;;;17.73;63.87;99846.85;2041985;87;31068;-60
2021/07/30 00:03:51;;;;;;;7.62;4.58;;;;;;;17.67;64.34;99850.08;2039374;86;27923;-60
2021/07/30 00:06:53;;;;;;;11.40;6.87;;;;;;;17.63;64.34;99844.08;2045534;86;29421;-60
2021/07/30 00:09:56;;;;;;;10.03;6.72;;;;;;;17.59;64.34;99850.75;2067679;86;27730;-60
2021/07/30 00:12:59;;;;;;;13.38;6.62;;;;;;;17.49;64.51;99840.36;2066513;86;29937;-60
2021/07/30 00:16:01;;;;;;;15.53;5.95;;;;;;;17.49;64.51;99840.36;2059362;86;31112;-60
2021/07/30 00:19:04;;;;;;;12.33;6.20;;;;;;;17.42;64.57;99852.22;2041233;86;34203;-60
2021/07/30 00:22:07;;;;;;;11.80;6.75;;;;;;;17.36;64.62;99855.44;2059538;86;30203;-61
2021/07/30 00:25:11;;;;;;;10.50;6.72;;;;;;;17.28;64.58;99852.03;2066835;86;27660;-60
2021/07/30 00:28:15;;;;;;;10.68;6.30;;;;;;;17.20;64.66;99854.04;2068046;86;28702;-61
2021/07/30 00:31:19;;;;;;;11.73;6.70;;;;;;;17.14;64.77;99849.14;2060192;86;31032;-61
2021/07/30 00:34:23;;;;;;;9.83;6.73;;;;;;;17.07;64.91;99857.42;2056682;86;33838;-61
2021/07/30 00:37:28;;;;;;;11.07;6.60;;;;;;;16.99;64.92;99855.37;2054242;86;29960;-61
2021/07/30 00:40:32;;;;;;;10.28;6.03;;;;;;;16.92;64.91;99847.35;2068398;86;28064;-61
2021/07/30 00:43:42;;;;;;;12.37;6.12;;;;;;;16.83;64.94;99848.50;2026200;86;29459;-60
2021/07/30 00:46:45;;;;;;;9.05;6.72;;;;;;;16.77;65.06;99853.57;2028086;86;31028;-61
2021/07/30 00:49:48;;;;;;;15.65;6.97;;;;;;;16.71;65.13;99857.14;2039564;87;33665;-61
2021/07/30 00:52:52;;;;;;;18.98;6.87;;;;;;;16.64;65.38;99856.42;2050936;86;28800;-61
2021/07/30 00:55:58;;;;;;;15.68;7.20;;;;;;;16.58;65.37;99869.95;2067097;86;27775;-60
2021/07/30 00:59:01;;;;;;;21.65;6.45;;;;;;;16.51;65.46;99866.90;2068465;86;28714;-61
2021/07/30 01:02:06;;;;;;;10.72;6.90;;;;;;;16.45;65.47;99863.84;2047528;86;31653;-61
2021/07/30 01:05:10;;;;;;;9.73;6.17;;;;;;;16.39;65.69;99862.47;2056551;86;34204;-62
2021/07/30 01:08:12;;;;;;;17.77;6.57;;;;;;;16.33;65.61;99860.28;2029110;86;29372;-59
2021/07/30 01:11:15;;;;;;;16.95;7.45;;;;;;;16.27;65.78;99858.06;2022095;87;27730;-60
2021/07/30 01:14:17;;;;;;;12.78;6.70;;;;;;;16.21;65.90;99850.84;2030644;87;30924;-60
2021/07/30 01:17:19;;;;;;;10.32;6.83;;;;;;;16.16;65.99;99857.58;2030992;86;32324;-60
2021/07/30 01:20:25;;;;;;;9.73;6.20;;;;;;;16.11;66.14;99859.30;2055017;86;34182;-60
2021/07/30 01:23:29;;;;;;;11.73;7.03;;;;;;;16.07;66.22;99864.58;1987677;89;30544;-61
2021/07/30 01:26:31;;;;;;;13.95;7.08;;;;;;;16.01;66.32;99870.48;2011528;86;27835;-61
2021/07/30 01:29:33;;;;;;;14.75;7.80;;;;;;;15.93;66.32;99860.29;2030839;86;29296;-61
2021/07/30 01:32:36;;;;;;;12.65;7.05;;;;;;;15.88;66.45;99861.14;2038124;86;32398;-61
2021/07/30 01:35:38;;;;;;;14.73;7.22;;;;;;;15.84;66.60;99865.02;2053892;86;34346;-61
2021/07/30 01:38:39;;;;;;;11.45;7.03;;;;;;;15.78;66.59;99855.09;2049027;86;30544;-61
2021/07/30 01:41:41;;;;;;;14.45;6.97;;;;;;;15.73;66.88;99855.94;2031717;87;27770;-61
2021/07/30 01:44:43;;;;;;;10.65;6.30;;;;;;;15.69;66.93;99859.00;2028868;86;29782;-61
2021/07/30 01:47:45;;;;;;;13.20;7.42;;;;;;;15.65;67.12;99863.77;2029998;86;32208;-61
2021/07/30 01:50:47;;;;;;;9.00;6.12;;;;;;;15.61;67.03;99859.61;2042720;86;34295;-61
2021/07/30 01:53:49;;;;;;;12.73;7.08;;;;;;;15.57;67.22;99867.56;2043253;86;30392;-61
2021/07/30 01:56:51;;;;;;;19.25;7.03;;;;;;;15.54;67.42;99862.39;2044827;86;28046;-61
2021/07/30 01:59:53;;;;;;;14.35;7.12;;;;;;;15.49;67.37;99867.66;2030797;87;29610;-61
2021/07/30 02:02:55;;;;;;;8.85;6.22;;;;;;;15.44;67.42;99867.17;2012482;86;33181;-61
2021/07/30 02:05:57;;;;;;;13.88;6.92;;;;;;;15.41;67.58;99866.53;2031669;86;33830;-61
2021/07/30 02:09:00;;;;;;;12.65;6.90;;;;;;;15.37;67.59;99861.86;2056405;86;31518;-61
2021/07/30 02:12:02;;;;;;;13.75;8.23;;;;;;;15.33;67.68;99864.42;2061178;86;27726;-61
2021/07/30 02:15:05;;;;;;;10.60;6.80;;;;;;;15.29;67.88;99861.61;2062233;86;29970;-61
2021/07/30 02:18:07;;;;;;;13.98;8.35;;;;;;;15.25;67.92;99863.66;2032558;86;31912;-61
2021/07/30 02:21:09;;;;;;;8.48;6.35;;;;;;;15.23;68.12;99866.95;2035371;86;33521;-61
2021/07/30 02:24:11;;;;;;;10.65;6.55;;;;;;;15.19;68.22;99865.50;2041627;86;30158;-61
2021/07/30 02:27:13;;;;;;;11.05;7.05;;;;;;;15.16;68.31;99862.52;2031636;86;27712;-61
2021/07/30 02:30:14;;;;;;;9.00;6.95;;;;;;;15.14;68.50;99869.86;2050488;86;28700;-61
2021/07/30 02:33:17;;;;;;;11.80;7.08;;;;;;;15.12;68.51;99864.22;2062096;86;32203;-61
2021/07/30 02:36:19;;;;;;;10.60;6.53;;;;;;;15.09;68.53;99868.50;2041354;86;33816;-61
2021/07/30 02:39:21;;;;;;;16.40;6.78;;;;;;;15.04;68.61;99862.98;2031306;86;30223;-61
2021/07/30 02:42:22;;;;;;;15.38;7.30;;;;;;;15.02;68.66;99868.10;2042304;86;27713;-61
2021/07/30 02:45:24;;;;;;;12.85;7.22;;;;;;;14.99;68.79;99874.60;2026405;86;29950;-61
2021/07/30 02:48:27;;;;;;;16.05;7.05;;;;;;;14.96;68.99;99877.52;2016412;88;32262;-61
2021/07/30 02:51:28;;;;;;;12.35;7.55;;;;;;;14.94;68.92;99874.58;2030083;86;33981;-61
2021/07/30 02:54:30;;;;;;;9.08;6.40;;;;;;;14.91;69.09;99872.11;2031095;86;29855;-61
2021/07/30 02:57:32;;;;;;;11.60;7.05;;;;;;;14.89;69.22;99875.77;2032731;86;28231;-61
2021/07/30 03:00:34;;;;;;;12.00;6.97;;;;;;;14.88;69.36;99874.55;2037598;86;29075;-61
2021/07/30 03:03:36;;;;;;;12.80;6.78;;;;;;;14.88;69.50;99873.20;2041590;86;32277;-61
2021/07/30 03:06:38;;;;;;;9.65;6.45;;;;;;;14.88;69.47;99875.40;2041393;86;34422;-62
2021/07/30 03:09:40;;;;;;;11.63;7.05;;;;;;;14.88;69.55;99882.14;2065878;86;30550;-61
2021/07/30 03:12:42;;;;;;;12.65;7.70;;;;;;;14.88;69.49;99878.60;2050800;86;28109;-61
2021/07/30 03:15:43;;;;;;;14.87;7.17;;;;;;;14.88;69.56;99876.75;2064355;86;29111;-61
2021/07/30 03:18:45;;;;;;;14.78;8.18;;;;;;;14.88;69.55;99877.25;2049811;86;31394;-61
2021/07/30 03:21:48;;;;;;;17.20;11.97;;;;;;;14.88;69.60;99884.84;2060883;86;33941;-61
2021/07/30 03:24:50;;;;;;;15.83;11.53;;;;;;;14.87;69.70;99877.72;2058168;86;29398;-61
2021/07/30 03:27:52;;;;;;;17.87;10.65;;;;;;;14.91;69.73;99881.05;2068433;86;27635;-61
2021/07/30 03:31:00;;;;;;;19.32;10.68;;;;;;;14.93;69.88;99877.75;2039878;86;30203;-61
2021/07/30 03:34:01;;;;;;;14.90;9.18;;;;;;;14.96;70.03;99876.68;2066660;86;31079;-61
2021/07/30 03:37:04;;;;;;;13.08;8.55;;;;;;;15.00;69.95;99880.38;2037133;86;34135;-64
2021/07/30 03:40:08;;;;;;;15.15;8.93;;;;;;;15.07;70.02;99886.16;2027393;86;29410;-64
2021/07/30 03:43:11;;;;;;;11.12;8.35;;;;;;;15.13;70.11;99888.88;2034530;87;27762;-65
2021/07/30 03:46:14;;;;;;;14.78;8.28;;;;;;;15.21;70.13;99880.20;2027322;86;28695;-64
2021/07/30 03:49:15;;;;;;;13.15;8.08;;;;;;;15.30;70.17;99881.72;2024801;87;31450;-64
2021/07/30 03:52:18;;;;;;;11.05;7.78;;;;;;;15.40;70.21;99876.48;2024630;87;33313;-64
2021/07/30 03:55:20;;;;;;;15.80;7.20;;;;;;;15.52;70.22;99886.83;2027325;86;30256;-64
2021/07/30 03:58:22;;;;;;;12.73;8.10;;;;;;;15.62;70.29;99878.37;2024220;87;27670;-64
2021/07/30 04:01:24;;;;;;;9.60;7.03;;;;;;;15.74;70.23;99884.66;2024071;87;30063;-64
2021/07/30 04:04:26;;;;;;;14.33;7.53;;;;;;;15.88;70.25;99880.05;2008702;87;32431;-65
2021/07/30 04:07:27;;;;;;;9.93;6.90;;;;;;;16.01;70.24;99880.79;2034149;87;33073;-64
2021/07/30 04:10:29;;;;;;;9.70;6.83;;;;;;;16.14;70.13;99880.68;1954223;89;30091;-64
2021/07/30 04:13:33;;;;;;;8.75;6.85;;;;;;;16.27;70.07;99888.67;2002554;88;27642;-64
2021/07/30 04:16:35;;;;;;;14.35;7.92;;;;;;;16.39;69.93;99891.73;1953796;91;29514;-65
2021/07/30 04:19:43;;;;;;;8.88;6.95;;;;;;;16.50;69.90;99885.45;2018932;87;31964;-64
2021/07/30 04:22:41;;;;;;;13.28;7.10;;;;;;;16.67;69.83;99887.28;2040057;86;34216;-64
2021/07/30 04:25:43;;;;;;;9.05;6.37;;;;;;;16.81;69.56;99891.53;2018210;87;30597;-64
2021/07/30 04:28:45;;;;;;;9.75;6.45;;;;;;;16.95;69.06;99886.37;1955265;91;27708;-64
2021/07/30 04:31:47;;;;;;;12.15;6.37;;;;;;;16.95;68.95;99855.25;1953811;89;29204;-64
2021/07/30 04:34:49;;;;;;;8.98;6.03;;;;;;;17.38;68.59;99893.57;2001621;88;30476;-64
2021/07/30 04:37:50;;;;;;;11.33;6.17;;;;;;;17.53;68.14;99881.94;1972204;89;33146;-64
2021/07/30 04:40:52;;;;;;;11.50;6.05;;;;;;;17.83;67.54;99895.17;1959140;90;28765;-64
2021/07/30 04:43:54;;;;;;;13.53;6.55;;;;;;;18.09;67.43;99892.08;1992231;89;27646;-64
2021/07/30 04:46:55;;;;;;;10.63;6.10;;;;;;;18.37;66.99;99890.98;1957398;90;28653;-65
2021/07/30 04:49:57;;;;;;;15.20;5.90;;;;;;;18.57;66.01;99888.34;1991375;89;31064;-64
2021/07/30 04:52:59;;;;;;;8.73;6.12;;;;;;;18.78;65.92;99889.59;1954679;90;33767;-64
2021/07/30 04:56:01;;;;;;;7.90;5.35;;;;;;;19.15;65.58;99893.05;2002049;87;30366;-64
2021/07/30 04:59:03;;;;;;;9.13;6.00;;;;;;;19.61;65.08;99888.38;2004138;88;27809;-64
2021/07/30 05:02:09;;;;;;;4.95;4.45;;;;;;;19.97;64.30;99889.98;2004053;88;29508;-64
2021/07/30 05:05:09;;;;;;;7.90;5.67;;;;;;;20.13;63.58;99880.70;2000522;87;31951;-64
2021/07/30 05:08:11;;;;;;;13.80;5.80;;;;;;;20.25;63.05;99885.95;2000283;88;32842;-64
2021/07/30 05:11:14;;;;;;;11.33;5.42;;;;;;;20.27;62.38;99883.42;2000307;89;29982;-64
2021/07/30 05:14:15;;;;;;;14.45;6.15;;;;;;;20.31;62.12;99886.20;2000470;89;27684;-66
2021/07/30 05:17:17;;;;;;;8.55;5.05;;;;;;;20.35;62.08;99885.42;2003364;86;28854;-64
2021/07/30 05:20:19;;;;;;;8.63;4.85;;;;;;;20.41;61.74;99886.67;2000057;89;31051;-64
2021/07/30 05:23:21;;;;;;;10.63;5.33;;;;;;;20.48;61.55;99891.36;2000121;88;33040;-64
2021/07/30 05:26:22;;;;;;;11.40;5.47;;;;;;;20.54;61.29;99887.66;2000306;89;30101;-65
2021/07/30 05:29:24;;;;;;;9.25;5.62;;;;;;;20.58;61.15;99886.36;2019665;86;27753;-65
2021/07/30 05:32:26;;;;;;;9.28;5.20;;;;;;;20.60;60.85;99880.27;2059075;86;28808;-64
2021/07/30 05:35:28;;;;;;;11.38;4.87;;;;;;;20.60;60.61;99881.11;2002524;86;31016;-64
2021/07/30 05:38:30;;;;;;;12.73;5.62;;;;;;;20.62;60.23;99879.09;2006890;86;33423;-65
2021/07/30 05:41:32;;;;;;;14.03;6.30;;;;;;;20.66;60.18;99881.03;2015032;88;30523;-64
2021/07/30 05:44:35;;;;;;;12.65;5.58;;;;;;;20.75;59.94;99881.98;2015905;88;27729;-64
2021/07/30 05:47:37;;;;;;;11.40;5.60;;;;;;;20.84;59.84;99878.88;2015997;88;29341;-65
2021/07/30 05:50:39;;;;;;;8.30;4.97;;;;;;;21.03;59.55;99880.08;2015675;88;31155;-65
2021/07/30 05:53:41;;;;;;;8.60;4.95;;;;;;;21.50;59.26;99878.98;2018096;86;33021;-66
2021/07/30 05:56:43;;;;;;;11.33;4.72;;;;;;;22.25;58.23;99873.54;2015968;88;30109;-66
2021/07/30 05:59:48;;;;;;;6.85;5.08;;;;;;;22.93;57.30;99874.15;2016055;88;27764;-66
2021/07/30 06:02:48;;;;;;;11.07;4.67;;;;;;;23.65;56.87;99866.19;2016208;88;28836;-66
2021/07/30 06:05:51;;;;;;;6.92;4.12;;;;;;;24.45;55.91;99869.09;2012166;87;31089;-66
2021/07/30 06:08:54;;;;;;;8.10;4.92;;;;;;;25.26;54.68;99868.83;2039701;87;33075;-63
2021/07/30 06:11:58;;;;;;;10.23;4.33;;;;;;;26.08;53.27;99874.62;2039178;87;30027;-65
2021/07/30 06:15:02;;;;;;;11.78;4.37;;;;;;;26.68;51.55;99872.72;2039267;87;37471;-64
2021/07/30 06:18:04;;;;;;;11.30;4.03;;;;;;;27.27;49.94;99864.51;2002378;87;28781;-64
2021/07/30 06:21:06;;;;;;;7.12;3.67;;;;;;;27.84;49.58;99864.58;1953691;91;31817;-64
2021/07/30 06:24:08;;;;;;;4.58;4.05;;;;;;;28.46;48.27;99860.66;2002784;88;33338;-64
2021/07/30 06:27:11;;;;;;;6.10;4.28;;;;;;;29.07;46.43;99858.97;1956038;89;30540;-65
2021/07/30 06:30:14;;;;;;;6.75;3.70;;;;;;;29.62;45.99;99857.45;2002560;88;27654;-65
2021/07/30 06:33:18;;;;;;;8.83;3.85;;;;;;;30.31;45.49;99866.82;1954012;91;29519;-66
2021/07/30 06:36:20;;;;;;;5.67;3.25;;;;;;;30.96;44.08;99861.78;2002266;87;31314;-65
2021/07/30 06:39:23;;;;;;;6.05;3.95;;;;;;;31.59;43.41;99858.73;1953984;91;33016;-65
2021/07/30 06:42:25;;;;;;;6.80;3.52;;;;;;;32.20;42.18;99856.23;2004549;87;29395;-64
2021/07/30 06:45:26;;;;;;;5.78;3.65;;;;;;;32.39;40.76;99859.04;2003549;87;27706;-64
2021/07/30 06:48:28;;;;;;;7.47;3.75;;;;;;;32.55;39.65;99849.23;2004257;88;29484;-64
2021/07/30 06:51:37;;;;;;;8.15;3.33;;;;;;;32.85;38.56;99847.05;2004338;87;31050;-64
2021/07/30 06:54:41;;;;;;;4.87;3.45;;;;;;;33.10;37.99;99851.06;1953619;90;29928;-64
2021/07/30 06:57:43;;;;;;;6.00;3.12;;;;;;;33.45;37.35;99843.39;2001988;88;29320;-64
2021/07/30 07:00:45;;;;;;;4.95;3.33;;;;;;;33.84;36.75;99843.48;1953875;91;27672;-64
2021/07/30 07:03:47;;;;;;;5.08;3.30;;;;;;;34.22;35.88;99847.72;2040472;86;28679;-65
2021/07/30 07:06:48;;;;;;;3.52;3.02;;;;;;;34.53;35.33;99847.84;2059183;86;31259;-64
2021/07/30 07:09:53;;;;;;;3.80;3.40;;;;;;;34.73;34.19;99849.91;2059365;86;33801;-64
2021/07/30 07:12:55;;;;;;;6.53;4.30;;;;;;;34.90;33.31;99848.55;2056932;86;29401;-65
2021/07/30 07:15:57;;;;;;;4.60;2.90;;;;;;;35.10;33.14;99851.76;2058243;86;27726;-64
2021/07/30 07:18:59;;;;;;;3.15;2.75;;;;;;;35.14;32.24;99848.78;2016280;88;28717;-64
2021/07/30 07:22:00;;;;;;;3.87;2.87;;;;;;;35.23;31.47;99846.95;2016156;88;31861;-65
2021/07/30 07:25:02;;;;;;;5.12;3.12;;;;;;;35.27;30.89;99843.41;2016080;88;33214;-65
2021/07/30 07:28:05;;;;;;;7.22;2.85;;;;;;;35.31;30.89;99847.95;2017472;86;29332;-64
2021/07/30 07:31:06;;;;;;;9.10;3.08;;;;;;;35.53;30.00;99834.14;2015945;88;28063;-64
2021/07/30 07:34:09;;;;;;;9.23;2.80;;;;;;;35.61;29.77;99829.22;2003970;88;28903;-64
2021/07/30 07:37:11;;;;;;;9.78;2.50;;;;;;;35.74;29.42;99831.69;1980197;88;32285;-65
2021/07/30 07:40:13;;;;;;;6.10;3.20;;;;;;;35.85;29.57;99831.27;1972043;89;34305;-65
2021/07/30 07:43:15;;;;;;;3.70;2.65;;;;;;;36.16;29.28;99829.80;1979493;89;30492;-65
2021/07/30 07:46:16;;;;;;;6.92;3.08;;;;;;;36.35;28.55;99829.48;1979750;89;27775;-65
2021/07/30 07:49:18;;;;;;;3.70;2.67;;;;;;;36.31;28.08;99819.94;1981362;88;28748;-64
2021/07/30 07:52:20;;;;;;;4.85;2.92;;;;;;;36.48;28.43;99818.52;1979794;89;31115;-64
2021/07/30 07:55:22;;;;;;;6.87;2.80;;;;;;;36.60;26.68;99823.94;1979672;89;33768;-65
2021/07/30 07:58:24;;;;;;;3.33;2.65;;;;;;;36.47;26.91;99825.20;1979432;89;29217;-64
2021/07/30 08:01:26;;;;;;;8.50;2.77;;;;;;;36.52;27.27;99823.02;1978970;89;27715;-65
2021/07/30 08:04:28;;;;;;;7.85;2.83;;;;;;;36.65;26.96;99823.44;1973347;89;28833;-65
2021/07/30 08:07:29;;;;;;;6.20;2.70;;;;;;;36.78;26.79;99822.19;1951532;91;31086;-65
2021/07/30 08:10:33;;;;;;;6.87;2.98;;;;;;;36.70;25.85;99820.42;1989733;89;33251;-65
2021/07/30 08:13:34;;;;;;;6.62;3.20;;;;;;;36.62;25.59;99812.82;1989884;89;35205;-64
2021/07/30 08:16:37;;;;;;;4.28;2.98;;;;;;;36.48;25.37;99803.17;1988938;89;27726;-63
2021/07/30 08:19:40;;;;;;;4.22;2.62;;;;;;;36.44;25.75;99802.83;1992943;87;29150;-63
2021/07/30 08:22:44;;;;;;;7.53;2.62;;;;;;;36.41;25.36;99802.48;1971389;89;32254;-63
2021/07/30 08:25:45;;;;;;;;;;;;;;;36.40;25.98;99803.59;1945110;91;32963;-63
2021/07/30 08:28:47;;;;;;;5.53;2.40;;;;;;;36.47;25.13;99802.87;1989850;89;30495;-64
2021/07/30 08:31:50;;;;;;;5.67;2.50;;;;;;;36.58;25.89;99799.09;1989767;89;27713;-64
2021/07/30 08:34:52;;;;;;;4.65;2.40;;;;;;;36.75;25.77;99799.55;1980008;89;29938;-64
2021/07/30 08:37:54;;;;;;;6.28;2.30;;;;;;;36.98;25.24;99797.59;1997752;88;31896;-64
2021/07/30 08:40:56;;;;;;;2.87;2.10;;;;;;;36.82;24.62;99792.36;1951398;91;34191;-64
2021/07/30 08:43:59;;;;;;;7.37;2.42;;;;;;;36.78;24.71;99791.48;1999836;88;29774;-64
2021/07/30 08:47:02;;;;;;;;;;;;;;;36.69;24.82;99785.23;1953686;91;27756;-64
2021/07/30 08:50:06;;;;;;;3.72;2.40;;;;;;;36.74;24.51;99789.48;1961841;89;29072;-64
2021/07/30 08:53:09;;;;;;;3.95;2.27;;;;;;;36.84;24.65;99787.36;1991958;89;31090;-64
2021/07/30 08:56:11;;;;;;;5.50;2.62;;;;;;;36.62;24.10;99786.84;1998736;88;33816;-64
2021/07/30 08:59:13;;;;;;;3.37;2.20;;;;;;;36.49;24.26;99783.91;1998152;88;30525;-63
2021/07/30 09:02:15;;;;;;;6.47;2.35;;;;;;;36.36;23.81;99780.95;1995322;88;27757;-63
2021/07/30 09:05:28;;;;;;;3.50;2.35;;;;;;;36.10;23.74;99785.38;1981021;89;30073;-63
2021/07/30 09:08:30;;;;;;;;;;;;;;;35.75;23.57;99777.60;1972491;90;31226;-63
2021/07/30 09:11:39;;;;;;;3.00;2.30;;;;;;;35.41;23.73;99775.69;1969791;90;34305;-63
2021/07/30 09:14:43;;;;;;;2.52;1.98;;;;;;;34.93;24.15;99775.16;1985274;88;30154;-64
2021/07/30 09:17:46;;;;;;;4.53;2.58;;;;;;;34.86;24.78;99764.72;2006360;88;27745;-63
2021/07/30 09:20:48;;;;;;;6.03;2.77;;;;;;;34.78;24.79;99764.58;2005829;88;30008;-63
2021/07/30 09:24:06;;;;;;;3.10;2.27;;;;;;;34.70;24.71;99758.02;2004043;88;31825;-63
2021/07/30 09:27:12;;;;;;;2.60;2.00;;;;;;;34.38;24.89;99759.88;2005650;88;32996;-63
2021/07/30 09:30:16;;;;;;;4.17;2.33;;;;;;;34.26;25.36;99746.02;1938530;91;29387;-64
2021/07/30 09:33:26;;;;;;;5.53;2.40;;;;;;;34.22;25.52;99747.06;1997080;88;27780;-64
2021/07/30 09:36:35;;;;;;;4.83;2.42;;;;;;;34.19;25.49;99735.03;1969645;90;28772;-64
2021/07/30 09:39:43;;;;;;;2.15;1.90;;;;;;;34.01;24.83;99737.98;1969247;89;31067;-64
2021/07/30 09:42:45;;;;;;;3.05;2.40;;;;;;;33.67;24.91;99738.64;1969850;90;32995;-64
2021/07/30 09:45:48;;;;;;;5.22;2.20;;;;;;;33.33;25.57;99732.30;1970291;88;30200;-65
2021/07/30 09:48:52;;;;;;;9.40;2.97;;;;;;;33.11;25.57;99736.73;1970454;89;28213;-64
2021/07/30 09:51:55;;;;;;;;;;;;;;;32.87;25.93;99729.73;1972168;90;28684;-64
2021/07/30 09:55:00;;;;;;;3.35;2.08;;;;;;;32.63;25.78;99726.89;1969884;88;32214;-64
2021/07/30 09:58:03;;;;;;;2.92;2.37;;;;;;;32.29;26.25;99726.52;1970877;89;33947;-63
2021/07/30 10:01:06;;;;;;;8.78;2.55;;;;;;;31.96;26.34;99718.06;1971904;90;29343;-63
2021/07/30 10:04:07;;;;;;;4.30;2.70;;;;;;;31.61;26.38;99711.17;1972909;88;28277;-64
2021/07/30 10:07:14;;;;;;;6.00;2.65;;;;;;;31.33;26.96;99716.69;1961493;89;29993;-63
2021/07/30 10:13:35;;;;;;;3.65;2.10;;;;;;;30.95;27.11;99705.72;2007609;88;33040;-63
2021/07/30 10:16:25;;;;;;;;;;;;;;;30.78;27.61;99704.89;2009162;88;29395;-63
2021/07/30 10:19:32;;;;;;;4.50;2.65;;;;;;;30.65;27.62;99699.47;2011737;86;27744;-63
2021/07/30 10:22:58;;;;;;;4.90;2.10;;;;;;;30.49;28.14;99688.36;1983449;88;29910;-63
2021/07/30 10:26:01;;;;;;;7.03;2.30;;;;;;;30.42;28.93;99688.41;1974589;90;31209;-64
2021/07/30 10:29:03;;;;;;;5.67;3.30;;;;;;;30.45;29.00;99686.59;1974146;90;33351;-64
2021/07/30 10:32:06;;;;;;;5.20;2.30;;;;;;;30.39;29.21;99686.08;1983856;88;29344;-64
2021/07/30 10:35:08;;;;;;;5.65;2.50;;;;;;;30.35;28.93;99675.19;1984876;88;27669;-64
2021/07/30 10:38:19;;;;;;;5.60;2.75;;;;;;;30.22;28.89;99676.10;1954177;89;28859;-64
2021/07/30 10:41:21;;;;;;;2.58;2.22;;;;;;;30.01;29.14;99667.93;1984070;89;32319;-64
2021/07/30 10:44:24;;;;;;;3.60;2.60;;;;;;;29.90;29.48;99663.59;1997429;88;33021;-64
2021/07/30 10:47:26;;;;;;;4.28;2.50;;;;;;;29.78;29.61;99668.42;1945716;91;29639;-63
2021/07/30 10:51:01;;;;;;;3.75;2.60;;;;;;;29.75;30.21;99663.34;1945538;91;27771;-64
2021/07/30 10:54:04;;;;;;;7.65;2.52;;;;;;;29.75;29.96;99661.09;1951071;91;28517;-65
2021/07/30 10:57:07;;;;;;;3.22;2.50;;;;;;;29.58;30.04;99660.19;1996639;88;31949;-65
2021/07/30 11:00:10;;;;;;;5.28;2.80;;;;;;;29.51;30.21;99656.63;2037516;87;33843;-64
2021/07/30 11:03:12;;;;;;;3.27;2.50;;;;;;;29.46;30.45;99657.80;2040586;87;30576;-66
2021/07/30 11:06:15;;;;;;;7.80;3.20;;;;;;;29.38;30.11;99652.81;2021292;85;27720;-64
2021/07/30 11:09:18;;;;;;;5.50;2.70;;;;;;;29.26;30.39;99645.72;1998476;89;28953;-63
2021/07/30 11:12:20;;;;;;;3.40;2.50;;;;;;;29.18;30.98;99649.24;1999516;87;31864;-64
2021/07/30 11:15:22;;;;;;;6.62;2.90;;;;;;;29.20;31.05;99648.50;1998973;87;33887;-63
2021/07/30 11:18:27;;;;;;;3.55;2.50;;;;;;;29.18;31.13;99642.34;1976798;89;29325;-63
2021/07/30 11:21:30;;;;;;;7.55;2.72;;;;;;;29.11;31.20;99643.73;1997991;89;28333;-64
2021/07/30 11:24:42;;;;;;;8.03;2.50;;;;;;;29.10;31.50;99641.49;1999265;89;28679;-63
2021/07/30 11:27:46;;;;;;;3.27;2.45;;;;;;;29.04;31.31;99639.58;1999246;89;31035;-63
2021/07/30 11:30:49;;;;;;;7.60;2.60;;;;;;;29.00;31.39;99636.09;2031122;86;33144;-64
2021/07/30 11:33:53;;;;;;;5.03;2.90;;;;;;;29.01;31.85;99637.80;2008243;88;30523;-64
2021/07/30 11:37:03;;;;;;;9.35;2.60;;;;;;;29.04;32.14;99632.69;2008566;88;27773;-63
2021/07/30 11:40:08;;;;;;;4.60;2.70;;;;;;;29.03;31.38;99621.37;2006465;88;30163;-64
2021/07/30 11:43:10;;;;;;;7.35;2.50;;;;;;;28.94;31.67;99626.26;1980972;88;32811;-63
2021/07/30 11:46:15;;;;;;;3.27;2.30;;;;;;;28.93;32.75;99616.80;2008277;88;33903;-63
2021/07/30 11:49:17;;;;;;;7.05;3.52;;;;;;;28.94;32.59;99611.09;2010038;86;30155;-63
2021/07/30 11:52:21;;;;;;;4.42;2.90;;;;;;;28.89;32.05;99607.25;1974840;90;27676;-63
2021/07/30 11:55:25;;;;;;;;;;;;;;;28.85;32.00;99606.84;2018829;86;28696;-64
2021/07/30 11:58:28;;;;;;;4.67;2.87;;;;;;;28.84;32.93;99607.91;2011976;86;31033;-64
2021/07/30 12:01:31;;;;;;;8.25;3.20;;;;;;;28.87;32.24;99609.41;2006811;87;33874;-63
2021/07/30 12:04:33;;;;;;;4.10;2.60;;;;;;;28.79;32.24;99596.14;2007018;88;30621;-64
2021/07/30 12:07:37;;;;;;;4.83;2.83;;;;;;;28.76;32.59;99599.87;1985162;88;27776;-63
2021/07/30 12:10:40;;;;;;;5.60;2.87;;;;;;;28.78;32.69;99596.37;2007334;88;28715;-64
2021/07/30 12:13:43;;;;;;;5.25;3.15;;;;;;;28.78;32.69;99588.93;1983196;88;31052;-63
2021/07/30 12:16:45;;;;;;;6.72;2.75;;;;;;;28.83;33.12;99579.18;1976482;89;33857;-64
2021/07/30 12:20:11;;;;;;;5.55;3.87;;;;;;;28.83;32.74;99579.18;1976828;89;29752;-64
2021/07/30 12:23:17;;;;;;;4.97;3.00;;;;;;;28.83;32.67;99562.09;1978207;88;28036;-63
2021/07/30 12:26:37;;;;;;;7.08;2.87;;;;;;;28.78;32.91;99560.53;1975030;90;30099;-64
2021/07/30 12:29:45;;;;;;;3.12;2.62;;;;;;;28.81;33.02;99564.21;1975350;90;31072;-64
2021/07/30 12:32:50;;;;;;;6.75;2.80;;;;;;;28.89;33.05;99563.14;1984578;88;33146;-64
2021/07/30 12:36:16;;;;;;;12.75;3.05;;;;;;;28.96;33.06;99560.68;1992423;89;27892;-64
2021/07/30 12:39:20;;;;;;;4.45;2.90;;;;;;;29.06;33.04;99560.78;1938720;91;27845;-64
2021/07/30 12:42:26;;;;;;;5.92;3.10;;;;;;;29.13;32.75;99554.70;1976717;88;28769;-64
2021/07/30 12:45:43;;;;;;;5.42;4.53;;;;;;;29.21;32.68;99548.09;1969022;88;31305;-64
2021/07/30 12:48:48;;;;;;;4.50;4.10;;;;;;;29.32;32.67;99545.20;1970153;90;33755;-64
2021/07/30 12:51:50;;;;;;;3.77;3.22;;;;;;;29.37;32.86;99546.81;1969771;90;30550;-64
2021/07/30 12:55:05;;;;;;;3.87;3.40;;;;;;;29.45;33.11;99541.58;1955708;90;27722;-63
2021/07/30 12:58:12;;;;;;;4.00;2.95;;;;;;;29.47;32.72;99540.28;1969812;90;28685;-63
2021/07/30 13:01:15;;;;;;;3.37;3.00;;;;;;;29.44;31.96;99537.98;1954631;90;31045;-63
2021/07/30 13:04:17;;;;;;;8.28;3.33;;;;;;;29.35;31.81;99532.38;1978618;88;33789;-63
2021/07/30 13:07:20;;;;;;;7.28;3.20;;;;;;;29.35;32.33;99534.63;2006214;88;29376;-63
2021/07/30 13:10:23;;;;;;;5.60;3.10;;;;;;;29.43;32.26;99520.25;2006674;88;27808;-63
2021/07/30 13:13:27;;;;;;;4.55;3.30;;;;;;;29.46;32.23;99519.27;2006483;88;29863;-63
2021/07/30 13:16:28;;;;;;;4.33;3.50;;;;;;;29.50;32.33;99517.77;1956477;90;31443;-64
2021/07/30 13:19:31;;;;;;;7.50;3.42;;;;;;;29.50;31.88;99512.25;1992061;89;33789;-64
2021/07/30 13:22:33;;;;;;;6.15;3.22;;;;;;;29.50;32.09;99515.01;1959503;90;29720;-64
2021/07/30 13:25:35;;;;;;;9.40;3.47;;;;;;;29.48;31.84;99507.48;1990211;89;27690;-64
2021/07/30 13:28:37;;;;;;;3.77;3.45;;;;;;;29.40;31.88;99502.23;1959403;90;29952;-66
2021/07/30 13:31:39;;;;;;;3.35;2.95;;;;;;;29.32;32.41;99500.53;1992273;89;31026;-65
2021/07/30 13:34:41;;;;;;;31.12;4.80;;;;;;;29.28;32.22;99503.96;1958955;90;32799;-63
2021/07/30 13:37:43;;;;;;;5.20;3.10;;;;;;;29.23;32.59;99497.18;1930463;90;29481;-63
2021/07/30 13:40:45;;;;;;;13.90;3.30;;;;;;;29.18;32.52;99496.98;1953526;91;27697;-63
2021/07/30 13:43:47;;;;;;;8.60;3.65;;;;;;;29.05;32.44;99495.11;1974801;90;29880;-63
2021/07/30 13:46:51;;;;;;;10.85;3.62;;;;;;;28.89;32.30;99494.20;2000477;88;32090;-63
2021/07/30 13:49:53;;;;;;;;;;;;;;;28.75;32.35;99498.93;1969110;88;33637;-65
2021/07/30 13:52:54;;;;;;;4.08;3.05;;;;;;;28.69;32.35;99488.20;1935200;90;29780;-62
2021/07/30 13:55:57;;;;;;;4.58;3.40;;;;;;;28.64;32.63;99485.24;2006433;88;27601;-63
2021/07/30 13:59:01;;;;;;;4.58;3.22;;;;;;;28.69;32.04;99487.34;1938909;91;29047;-61
2021/07/30 14:02:03;;;;;;;10.03;3.12;;;;;;;28.70;32.14;99481.64;1914114;91;31434;-63
2021/07/30 14:05:08;;;;;;;5.55;3.72;;;;;;;28.74;32.71;99480.15;1975361;90;32951;-63
2021/07/30 14:08:12;;;;;;;5.28;3.52;;;;;;;28.77;33.15;99483.03;1999461;88;29348;-63
2021/07/30 14:11:15;;;;;;;7.17;4.20;;;;;;;28.83;32.74;99482.69;2007616;88;27780;-64
2021/07/30 14:14:17;;;;;;;4.62;4.20;;;;;;;28.93;33.16;99482.55;2024885;86;29570;-63
2021/07/30 14:17:19;;;;;;;6.87;3.55;;;;;;;29.05;32.97;99484.08;2005330;86;31173;-67
2021/07/30 14:20:21;;;;;;;6.62;4.05;;;;;;;29.10;32.63;99483.45;2010100;86;32016;-65
2021/07/30 14:23:22;;;;;;;4.15;3.75;;;;;;;29.04;32.34;99478.25;2039995;87;30574;-64